sensor_id;sensor_type;location;lat;lon;timestamp;temperature;humidity
15105;DHT22;7653;48.994;9.212;2022-11-06T00:01:10;3.70;81.70
15105;DHT22;7653;48.994;9.212;2022-11-06T00:03:36;3.50;83.20
15105;DHT22;7653;48.994;9.212;2022-11-06T00:06:09;3.60;84.20
15105;DHT22;7653;48.994;9.212;2022-11-06T00:08:54;3.60;86.00
15105;DHT22;7653;48.994;9.212;2022-11-06T00:11:23;3.60;86.50
15105;DHT22;7653;48.994;9.212;2022-11-06T00:13:49;3.60;86.20
15105;DHT22;7653;48.994;9.212;2022-11-06T00:16:17;3.60;87.10
15105;DHT22;7653;48.994;9.212;2022-11-06T00:18:42;3.70;89.10
15105;DHT22;7653;48.994;9.212;2022-11-06T00:21:14;3.70;89.00
15105;DHT22;7653;48.994;9.212;2022-11-06T00:23:41;3.70;90.00
15105;DHT22;7653;48.994;9.212;2022-11-06T00:26:12;3.60;89.70
15105;DHT22;7653;48.994;9.212;2022-11-06T00:28:38;3.50;88.80
15105;DHT22;7653;48.994;9.212;2022-11-06T00:31:06;3.50;88.20
15105;DHT22;7653;48.994;9.212;2022-11-06T00:33:32;3.50;88.10
15105;DHT22;7653;48.994;9.212;2022-11-06T00:36:02;3.50;88.30
15105;DHT22;7653;48.994;9.212;2022-11-06T00:38:28;3.50;88.30
15105;DHT22;7653;48.994;9.212;2022-11-06T00:40:54;3.50;88.90
15105;DHT22;7653;48.994;9.212;2022-11-06T00:43:19;3.60;89.60
15105;DHT22;7653;48.994;9.212;2022-11-06T00:45:45;3.60;90.00
15105;DHT22;7653;48.994;9.212;2022-11-06T00:48:12;3.60;90.00
15105;DHT22;7653;48.994;9.212;2022-11-06T00:50:37;3.50;88.90
15105;DHT22;7653;48.994;9.212;2022-11-06T00:53:03;3.30;88.70
15105;DHT22;7653;48.994;9.212;2022-11-06T00:55:29;3.30;90.10
15105;DHT22;7653;48.994;9.212;2022-11-06T00:57:54;3.30;90.40
15105;DHT22;7653;48.994;9.212;2022-11-06T01:00:20;3.40;90.80
15105;DHT22;7653;48.994;9.212;2022-11-06T01:02:46;3.50;90.80
15105;DHT22;7653;48.994;9.212;2022-11-06T01:05:13;3.50;90.20
15105;DHT22;7653;48.994;9.212;2022-11-06T01:07:39;3.50;89.90
15105;DHT22;7653;48.994;9.212;2022-11-06T01:10:05;3.40;88.80
15105;DHT22;7653;48.994;9.212;2022-11-06T01:12:32;3.40;88.20
15105;DHT22;7653;48.994;9.212;2022-11-06T01:14:58;3.40;87.60
15105;DHT22;7653;48.994;9.212;2022-11-06T01:17:23;3.30;87.80
15105;DHT22;7653;48.994;9.212;2022-11-06T01:19:49;3.30;87.20
15105;DHT22;7653;48.994;9.212;2022-11-06T01:22:15;3.30;86.90
15105;DHT22;7653;48.994;9.212;2022-11-06T01:24:41;3.30;86.30
15105;DHT22;7653;48.994;9.212;2022-11-06T01:27:07;3.20;85.80
15105;DHT22;7653;48.994;9.212;2022-11-06T01:29:33;3.20;86.10
15105;DHT22;7653;48.994;9.212;2022-11-06T01:31:58;3.20;85.20
15105;DHT22;7653;48.994;9.212;2022-11-06T01:34:24;3.20;86.00
15105;DHT22;7653;48.994;9.212;2022-11-06T01:36:50;3.20;85.90
15105;DHT22;7653;48.994;9.212;2022-11-06T01:39:16;3.20;86.60
15105;DHT22;7653;48.994;9.212;2022-11-06T01:41:44;3.10;87.30
15105;DHT22;7653;48.994;9.212;2022-11-06T01:47:24;2.90;86.80
15105;DHT22;7653;48.994;9.212;2022-11-06T01:49:56;3.00;87.30
15105;DHT22;7653;48.994;9.212;2022-11-06T01:52:22;2.80;87.00
15105;DHT22;7653;48.994;9.212;2022-11-06T01:54:54;2.70;87.80
15105;DHT22;7653;48.994;9.212;2022-11-06T01:57:26;2.50;87.30
15105;DHT22;7653;48.994;9.212;2022-11-06T01:59:58;2.60;88.10
15105;DHT22;7653;48.994;9.212;2022-11-06T02:02:26;2.60;89.40
15105;DHT22;7653;48.994;9.212;2022-11-06T02:04:52;2.70;89.50
15105;DHT22;7653;48.994;9.212;2022-11-06T02:07:18;2.80;88.90
15105;DHT22;7653;48.994;9.212;2022-11-06T02:09:46;2.60;87.80
15105;DHT22;7653;48.994;9.212;2022-11-06T02:18:01;2.50;88.50
15105;DHT22;7653;48.994;9.212;2022-11-06T02:28:53;2.40;88.40
15105;DHT22;7653;48.994;9.212;2022-11-06T02:31:25;2.50;88.40
15105;DHT22;7653;48.994;9.212;2022-11-06T02:33:54;2.60;88.40
15105;DHT22;7653;48.994;9.212;2022-11-06T02:36:26;2.70;88.60
15105;DHT22;7653;48.994;9.212;2022-11-06T02:38:58;2.60;87.90
15105;DHT22;7653;48.994;9.212;2022-11-06T02:41:30;2.50;88.30
15105;DHT22;7653;48.994;9.212;2022-11-06T02:43:56;2.40;87.00
15105;DHT22;7653;48.994;9.212;2022-11-06T02:47:09;2.30;86.70
15105;DHT22;7653;48.994;9.212;2022-11-06T02:51:57;2.10;87.30
15105;DHT22;7653;48.994;9.212;2022-11-06T02:54:27;2.20;88.40
15105;DHT22;7653;48.994;9.212;2022-11-06T02:56:59;2.30;89.70
15105;DHT22;7653;48.994;9.212;2022-11-06T02:59:35;2.30;90.40
15105;DHT22;7653;48.994;9.212;2022-11-06T03:02:07;2.20;90.20
15105;DHT22;7653;48.994;9.212;2022-11-06T03:05:02;2.30;90.40
15105;DHT22;7653;48.994;9.212;2022-11-06T03:10:05;2.40;90.50
15105;DHT22;7653;48.994;9.212;2022-11-06T03:18:34;2.50;90.50
15105;DHT22;7653;48.994;9.212;2022-11-06T03:21:07;2.50;90.10
15105;DHT22;7653;48.994;9.212;2022-11-06T03:23:41;2.30;88.90
15105;DHT22;7653;48.994;9.212;2022-11-06T03:28:42;2.40;90.80
15105;DHT22;7653;48.994;9.212;2022-11-06T03:31:14;2.60;91.30
15105;DHT22;7653;48.994;9.212;2022-11-06T03:33:48;2.70;91.40
15105;DHT22;7653;48.994;9.212;2022-11-06T03:36:19;2.60;91.30
15105;DHT22;7653;48.994;9.212;2022-11-06T03:38:53;2.50;91.20
15105;DHT22;7653;48.994;9.212;2022-11-06T03:41:44;2.40;91.60
15105;DHT22;7653;48.994;9.212;2022-11-06T03:44:16;2.50;92.10
15105;DHT22;7653;48.994;9.212;2022-11-06T03:46:57;2.60;92.10
15105;DHT22;7653;48.994;9.212;2022-11-06T03:49:32;2.50;92.00
15105;DHT22;7653;48.994;9.212;2022-11-06T03:52:08;2.50;92.10
15105;DHT22;7653;48.994;9.212;2022-11-06T03:54:54;2.50;92.40
15105;DHT22;7653;48.994;9.212;2022-11-06T03:57:30;2.60;92.70
15105;DHT22;7653;48.994;9.212;2022-11-06T04:00:01;2.70;92.80
15105;DHT22;7653;48.994;9.212;2022-11-06T04:02:30;2.70;92.80
15105;DHT22;7653;48.994;9.212;2022-11-06T04:05:24;2.70;92.80
15105;DHT22;7653;48.994;9.212;2022-11-06T04:07:52;2.80;93.30
15105;DHT22;7653;48.994;9.212;2022-11-06T04:10:41;2.80;93.40
15105;DHT22;7653;48.994;9.212;2022-11-06T04:13:29;2.70;93.20
15105;DHT22;7653;48.994;9.212;2022-11-06T04:16:14;2.60;92.90
15105;DHT22;7653;48.994;9.212;2022-11-06T04:18:40;2.50;92.80
15105;DHT22;7653;48.994;9.212;2022-11-06T04:21:51;2.60;93.20
15105;DHT22;7653;48.994;9.212;2022-11-06T04:24:41;2.60;93.30
15105;DHT22;7653;48.994;9.212;2022-11-06T04:30:09;2.80;93.10
15105;DHT22;7653;48.994;9.212;2022-11-06T04:41:37;2.40;92.00
15105;DHT22;7653;48.994;9.212;2022-11-06T04:44:16;2.40;91.90
15105;DHT22;7653;48.994;9.212;2022-11-06T04:46:52;2.40;92.00
15105;DHT22;7653;48.994;9.212;2022-11-06T04:49:20;2.40;92.20
15105;DHT22;7653;48.994;9.212;2022-11-06T04:51:46;2.40;92.50
15105;DHT22;7653;48.994;9.212;2022-11-06T04:54:13;2.40;92.50
15105;DHT22;7653;48.994;9.212;2022-11-06T04:56:39;2.40;92.60
15105;DHT22;7653;48.994;9.212;2022-11-06T04:59:05;2.40;92.70
15105;DHT22;7653;48.994;9.212;2022-11-06T05:01:31;2.30;93.00
15105;DHT22;7653;48.994;9.212;2022-11-06T05:03:57;2.40;93.10
15105;DHT22;7653;48.994;9.212;2022-11-06T05:06:22;2.30;92.80
15105;DHT22;7653;48.994;9.212;2022-11-06T05:08:48;2.30;92.70
15105;DHT22;7653;48.994;9.212;2022-11-06T05:11:14;2.20;92.60
15105;DHT22;7653;48.994;9.212;2022-11-06T05:13:40;2.10;92.20
15105;DHT22;7653;48.994;9.212;2022-11-06T05:16:06;2.00;92.50
15105;DHT22;7653;48.994;9.212;2022-11-06T05:18:31;2.00;92.70
15105;DHT22;7653;48.994;9.212;2022-11-06T05:21:01;2.00;92.90
15105;DHT22;7653;48.994;9.212;2022-11-06T05:23:45;2.10;93.10
15105;DHT22;7653;48.994;9.212;2022-11-06T05:26:11;2.10;93.10
15105;DHT22;7653;48.994;9.212;2022-11-06T05:28:37;2.10;92.90
15105;DHT22;7653;48.994;9.212;2022-11-06T05:31:03;2.10;92.80
15105;DHT22;7653;48.994;9.212;2022-11-06T05:33:29;2.10;92.70
15105;DHT22;7653;48.994;9.212;2022-11-06T05:35:55;2.00;92.30
15105;DHT22;7653;48.994;9.212;2022-11-06T05:38:21;2.00;92.40
15105;DHT22;7653;48.994;9.212;2022-11-06T05:41:01;2.00;92.30
15105;DHT22;7653;48.994;9.212;2022-11-06T05:43:40;2.00;91.80
15105;DHT22;7653;48.994;9.212;2022-11-06T05:46:11;2.00;91.90
15105;DHT22;7653;48.994;9.212;2022-11-06T05:48:37;2.00;92.20
15105;DHT22;7653;48.994;9.212;2022-11-06T05:51:04;2.00;92.40
15105;DHT22;7653;48.994;9.212;2022-11-06T05:53:32;2.00;92.80
15105;DHT22;7653;48.994;9.212;2022-11-06T05:55:58;2.10;93.30
15105;DHT22;7653;48.994;9.212;2022-11-06T05:58:24;2.20;93.80
15105;DHT22;7653;48.994;9.212;2022-11-06T06:00:50;2.30;94.30
15105;DHT22;7653;48.994;9.212;2022-11-06T06:03:16;2.40;94.40
15105;DHT22;7653;48.994;9.212;2022-11-06T06:05:42;2.40;94.40
15105;DHT22;7653;48.994;9.212;2022-11-06T06:08:07;2.40;94.80
15105;DHT22;7653;48.994;9.212;2022-11-06T06:10:33;2.50;95.30
15105;DHT22;7653;48.994;9.212;2022-11-06T06:13:00;2.50;95.40
15105;DHT22;7653;48.994;9.212;2022-11-06T06:15:25;2.20;95.30
15105;DHT22;7653;48.994;9.212;2022-11-06T06:17:52;2.10;95.60
15105;DHT22;7653;48.994;9.212;2022-11-06T06:20:18;2.10;95.90
15105;DHT22;7653;48.994;9.212;2022-11-06T06:22:52;2.00;96.10
15105;DHT22;7653;48.994;9.212;2022-11-06T06:25:18;2.20;96.60
15105;DHT22;7653;48.994;9.212;2022-11-06T06:27:44;2.30;96.90
15105;DHT22;7653;48.994;9.212;2022-11-06T06:30:10;2.30;96.90
15105;DHT22;7653;48.994;9.212;2022-11-06T06:32:36;2.40;97.00
15105;DHT22;7653;48.994;9.212;2022-11-06T06:35:01;2.30;97.00
15105;DHT22;7653;48.994;9.212;2022-11-06T06:37:27;2.10;96.70
15105;DHT22;7653;48.994;9.212;2022-11-06T06:39:52;2.10;96.90
15105;DHT22;7653;48.994;9.212;2022-11-06T06:42:18;2.00;96.90
15105;DHT22;7653;48.994;9.212;2022-11-06T06:44:44;2.00;97.10
15105;DHT22;7653;48.994;9.212;2022-11-06T06:47:09;2.00;96.90
15105;DHT22;7653;48.994;9.212;2022-11-06T06:49:35;2.00;97.10
15105;DHT22;7653;48.994;9.212;2022-11-06T06:52:01;2.00;96.90
15105;DHT22;7653;48.994;9.212;2022-11-06T06:54:26;2.10;97.20
15105;DHT22;7653;48.994;9.212;2022-11-06T06:56:52;2.00;96.90
15105;DHT22;7653;48.994;9.212;2022-11-06T06:59:17;2.00;96.90
15105;DHT22;7653;48.994;9.212;2022-11-06T07:01:43;2.00;97.20
15105;DHT22;7653;48.994;9.212;2022-11-06T07:04:09;2.00;96.70
15105;DHT22;7653;48.994;9.212;2022-11-06T07:06:35;2.10;97.00
15105;DHT22;7653;48.994;9.212;2022-11-06T07:09:01;2.10;96.70
15105;DHT22;7653;48.994;9.212;2022-11-06T07:11:26;2.10;96.90
15105;DHT22;7653;48.994;9.212;2022-11-06T07:13:52;2.30;97.10
15105;DHT22;7653;48.994;9.212;2022-11-06T07:16:17;2.50;96.90
15105;DHT22;7653;48.994;9.212;2022-11-06T07:18:45;2.50;96.20
15105;DHT22;7653;48.994;9.212;2022-11-06T07:21:12;2.20;95.80
15105;DHT22;7653;48.994;9.212;2022-11-06T07:23:38;2.10;95.70
15105;DHT22;7653;48.994;9.212;2022-11-06T07:26:04;2.40;96.30
15105;DHT22;7653;48.994;9.212;2022-11-06T07:28:34;2.50;96.00
15105;DHT22;7653;48.994;9.212;2022-11-06T07:31:01;2.30;95.00
15105;DHT22;7653;48.994;9.212;2022-11-06T07:33:27;2.30;95.20
15105;DHT22;7653;48.994;9.212;2022-11-06T07:35:53;2.20;95.00
15105;DHT22;7653;48.994;9.212;2022-11-06T07:38:19;2.10;95.10
15105;DHT22;7653;48.994;9.212;2022-11-06T07:40:44;2.20;95.60
15105;DHT22;7653;48.994;9.212;2022-11-06T07:43:11;2.50;95.90
15105;DHT22;7653;48.994;9.212;2022-11-06T07:45:38;2.60;95.90
15105;DHT22;7653;48.994;9.212;2022-11-06T07:48:05;2.70;95.70
15105;DHT22;7653;48.994;9.212;2022-11-06T07:50:32;2.80;95.50
15105;DHT22;7653;48.994;9.212;2022-11-06T07:53:01;2.80;95.30
15105;DHT22;7653;48.994;9.212;2022-11-06T07:55:27;2.90;95.20
15105;DHT22;7653;48.994;9.212;2022-11-06T07:57:53;2.90;95.20
15105;DHT22;7653;48.994;9.212;2022-11-06T08:00:18;3.00;95.20
15105;DHT22;7653;48.994;9.212;2022-11-06T08:02:50;3.10;95.20
15105;DHT22;7653;48.994;9.212;2022-11-06T08:05:16;3.00;94.60
15105;DHT22;7653;48.994;9.212;2022-11-06T08:07:41;3.00;94.80
15105;DHT22;7653;48.994;9.212;2022-11-06T08:10:07;3.10;94.80
15105;DHT22;7653;48.994;9.212;2022-11-06T08:12:33;3.20;94.70
15105;DHT22;7653;48.994;9.212;2022-11-06T08:14:59;3.20;94.70
15105;DHT22;7653;48.994;9.212;2022-11-06T08:17:25;3.40;95.40
15105;DHT22;7653;48.994;9.212;2022-11-06T08:19:51;3.60;95.70
15105;DHT22;7653;48.994;9.212;2022-11-06T08:22:17;3.70;95.80
15105;DHT22;7653;48.994;9.212;2022-11-06T08:24:43;3.80;96.00
15105;DHT22;7653;48.994;9.212;2022-11-06T08:27:09;3.90;95.90
15105;DHT22;7653;48.994;9.212;2022-11-06T08:29:35;4.00;95.80
15105;DHT22;7653;48.994;9.212;2022-11-06T08:32:01;4.00;95.70
15105;DHT22;7653;48.994;9.212;2022-11-06T08:34:28;4.10;95.30
15105;DHT22;7653;48.994;9.212;2022-11-06T08:36:53;4.00;94.20
15105;DHT22;7653;48.994;9.212;2022-11-06T08:39:20;3.90;94.30
15105;DHT22;7653;48.994;9.212;2022-11-06T08:41:46;4.00;94.50
15105;DHT22;7653;48.994;9.212;2022-11-06T08:44:11;4.10;95.00
15105;DHT22;7653;48.994;9.212;2022-11-06T08:46:37;4.00;95.00
15105;DHT22;7653;48.994;9.212;2022-11-06T08:49:03;4.10;95.00
15105;DHT22;7653;48.994;9.212;2022-11-06T08:51:28;4.20;95.60
15105;DHT22;7653;48.994;9.212;2022-11-06T08:53:54;4.30;95.90
15105;DHT22;7653;48.994;9.212;2022-11-06T08:56:19;4.50;96.00
15105;DHT22;7653;48.994;9.212;2022-11-06T08:58:45;4.70;95.90
15105;DHT22;7653;48.994;9.212;2022-11-06T09:01:11;4.80;95.70
15105;DHT22;7653;48.994;9.212;2022-11-06T09:03:37;4.90;95.40
15105;DHT22;7653;48.994;9.212;2022-11-06T09:06:05;4.90;95.30
15105;DHT22;7653;48.994;9.212;2022-11-06T09:08:31;4.90;94.80
15105;DHT22;7653;48.994;9.212;2022-11-06T09:10:57;5.10;94.70
15105;DHT22;7653;48.994;9.212;2022-11-06T09:13:25;5.20;94.60
15105;DHT22;7653;48.994;9.212;2022-11-06T09:15:50;5.30;94.50
15105;DHT22;7653;48.994;9.212;2022-11-06T09:18:16;5.50;93.90
15105;DHT22;7653;48.994;9.212;2022-11-06T09:20:41;5.80;93.40
15105;DHT22;7653;48.994;9.212;2022-11-06T09:23:08;5.90;91.90
15105;DHT22;7653;48.994;9.212;2022-11-06T09:25:34;6.00;90.00
15105;DHT22;7653;48.994;9.212;2022-11-06T09:28:02;6.00;85.40
15105;DHT22;7653;48.994;9.212;2022-11-06T09:30:29;6.10;84.10
15105;DHT22;7653;48.994;9.212;2022-11-06T09:32:57;6.20;84.10
15105;DHT22;7653;48.994;9.212;2022-11-06T09:35:25;6.40;82.40
15105;DHT22;7653;48.994;9.212;2022-11-06T09:37:51;6.50;82.40
15105;DHT22;7653;48.994;9.212;2022-11-06T09:40:27;6.70;80.70
15105;DHT22;7653;48.994;9.212;2022-11-06T09:45:26;6.80;80.80
15105;DHT22;7653;48.994;9.212;2022-11-06T09:48:16;6.80;81.20
15105;DHT22;7653;48.994;9.212;2022-11-06T09:50:50;6.90;83.80
15105;DHT22;7653;48.994;9.212;2022-11-06T09:55:52;7.10;81.30
15105;DHT22;7653;48.994;9.212;2022-11-06T09:58:24;7.20;77.40
15105;DHT22;7653;48.994;9.212;2022-11-06T10:00:52;7.40;76.10
15105;DHT22;7653;48.994;9.212;2022-11-06T10:03:25;7.30;71.80
15105;DHT22;7653;48.994;9.212;2022-11-06T10:05:53;7.40;73.30
15105;DHT22;7653;48.994;9.212;2022-11-06T10:08:27;7.50;74.30
15105;DHT22;7653;48.994;9.212;2022-11-06T10:11:13;7.50;69.50
15105;DHT22;7653;48.994;9.212;2022-11-06T10:24:31;8.30;65.90
15105;DHT22;7653;48.994;9.212;2022-11-06T10:27:02;8.40;64.30
15105;DHT22;7653;48.994;9.212;2022-11-06T10:35:36;8.60;67.10
15105;DHT22;7653;48.994;9.212;2022-11-06T10:40:33;8.70;65.10
15105;DHT22;7653;48.994;9.212;2022-11-06T10:48:58;8.90;64.60
15105;DHT22;7653;48.994;9.212;2022-11-06T10:56:55;9.40;65.10
15105;DHT22;7653;48.994;9.212;2022-11-06T10:59:25;9.40;62.00
15105;DHT22;7653;48.994;9.212;2022-11-06T11:01:51;9.30;60.30
15105;DHT22;7653;48.994;9.212;2022-11-06T11:04:18;9.50;60.70
15105;DHT22;7653;48.994;9.212;2022-11-06T11:06:43;9.60;61.10
15105;DHT22;7653;48.994;9.212;2022-11-06T11:09:29;9.50;60.40
15105;DHT22;7653;48.994;9.212;2022-11-06T11:11:56;9.60;62.10
15105;DHT22;7653;48.994;9.212;2022-11-06T11:14:28;9.70;62.00
15105;DHT22;7653;48.994;9.212;2022-11-06T11:16:57;9.90;61.30
15105;DHT22;7653;48.994;9.212;2022-11-06T11:19:43;10.00;59.90
15105;DHT22;7653;48.994;9.212;2022-11-06T11:22:16;10.00;59.90
15105;DHT22;7653;48.994;9.212;2022-11-06T11:25:02;10.10;59.20
15105;DHT22;7653;48.994;9.212;2022-11-06T11:27:29;10.00;59.90
15105;DHT22;7653;48.994;9.212;2022-11-06T11:29:56;10.20;60.10
15105;DHT22;7653;48.994;9.212;2022-11-06T11:32:22;10.10;60.00
15105;DHT22;7653;48.994;9.212;2022-11-06T11:34:52;10.30;59.50
15105;DHT22;7653;48.994;9.212;2022-11-06T11:37:30;10.40;57.10
15105;DHT22;7653;48.994;9.212;2022-11-06T11:40:25;10.50;57.30
15105;DHT22;7653;48.994;9.212;2022-11-06T11:56:53;10.90;53.40
15105;DHT22;7653;48.994;9.212;2022-11-06T11:59:23;11.20;51.50
15105;DHT22;7653;48.994;9.212;2022-11-06T12:01:50;11.10;48.90
15105;DHT22;7653;48.994;9.212;2022-11-06T12:09:50;11.40;46.80
15105;DHT22;7653;48.994;9.212;2022-11-06T12:12:28;11.50;46.30
15105;DHT22;7653;48.994;9.212;2022-11-06T12:15:39;11.70;45.00
15105;DHT22;7653;48.994;9.212;2022-11-06T12:18:15;11.70;43.30
15105;DHT22;7653;48.994;9.212;2022-11-06T12:21:07;11.50;42.00
15105;DHT22;7653;48.994;9.212;2022-11-06T12:28:45;11.70;41.20
15105;DHT22;7653;48.994;9.212;2022-11-06T12:31:47;11.70;41.40
15105;DHT22;7653;48.994;9.212;2022-11-06T12:34:33;11.90;40.10
15105;DHT22;7653;48.994;9.212;2022-11-06T12:39:56;11.90;38.70
15105;DHT22;7653;48.994;9.212;2022-11-06T12:42:26;11.90;39.00
15105;DHT22;7653;48.994;9.212;2022-11-06T12:44:54;12.10;37.90
15105;DHT22;7653;48.994;9.212;2022-11-06T12:50:37;12.20;38.50
15105;DHT22;7653;48.994;9.212;2022-11-06T12:58:51;11.90;37.40
15105;DHT22;7653;48.994;9.212;2022-11-06T13:04:51;11.80;39.80
15105;DHT22;7653;48.994;9.212;2022-11-06T13:07:38;11.60;39.80
15105;DHT22;7653;48.994;9.212;2022-11-06T13:13:16;11.60;39.50
15105;DHT22;7653;48.994;9.212;2022-11-06T13:29:43;11.60;39.60
15105;DHT22;7653;48.994;9.212;2022-11-06T13:32:15;11.70;39.30
15105;DHT22;7653;48.994;9.212;2022-11-06T13:34:43;11.70;39.30
15105;DHT22;7653;48.994;9.212;2022-11-06T13:37:37;11.70;39.60
15105;DHT22;7653;48.994;9.212;2022-11-06T13:45:52;11.50;39.90
15105;DHT22;7653;48.994;9.212;2022-11-06T13:48:33;11.50;39.00
15105;DHT22;7653;48.994;9.212;2022-11-06T13:53:44;11.40;39.60
15105;DHT22;7653;48.994;9.212;2022-11-06T14:07:07;11.30;39.80
15105;DHT22;7653;48.994;9.212;2022-11-06T14:09:36;11.10;40.00
15105;DHT22;7653;48.994;9.212;2022-11-06T14:12:07;11.00;39.80
15105;DHT22;7653;48.994;9.212;2022-11-06T14:14:37;11.00;40.00
15105;DHT22;7653;48.994;9.212;2022-11-06T14:19:37;11.00;40.30
15105;DHT22;7653;48.994;9.212;2022-11-06T14:24:37;10.90;39.50
15105;DHT22;7653;48.994;9.212;2022-11-06T14:34:39;10.70;40.60
15105;DHT22;7653;48.994;9.212;2022-11-06T14:47:38;10.40;40.80
15105;DHT22;7653;48.994;9.212;2022-11-06T14:53:00;10.30;40.90
15105;DHT22;7653;48.994;9.212;2022-11-06T14:55:37;10.20;40.80
15105;DHT22;7653;48.994;9.212;2022-11-06T14:58:23;10.20;40.80
15105;DHT22;7653;48.994;9.212;2022-11-06T15:16:37;9.90;43.90
15105;DHT22;7653;48.994;9.212;2022-11-06T15:19:06;9.90;43.30
15105;DHT22;7653;48.994;9.212;2022-11-06T15:21:42;9.90;43.50
15105;DHT22;7653;48.994;9.212;2022-11-06T15:24:16;9.80;43.70
15105;DHT22;7653;48.994;9.212;2022-11-06T15:26:47;9.80;44.40
15105;DHT22;7653;48.994;9.212;2022-11-06T15:31:43;9.50;44.90
15105;DHT22;7653;48.994;9.212;2022-11-06T15:34:22;9.50;45.20
15105;DHT22;7653;48.994;9.212;2022-11-06T15:36:57;9.40;46.00
15105;DHT22;7653;48.994;9.212;2022-11-06T15:41:55;9.00;47.30
15105;DHT22;7653;48.994;9.212;2022-11-06T15:44:22;9.10;48.00
15105;DHT22;7653;48.994;9.212;2022-11-06T15:46:56;9.10;48.10
15105;DHT22;7653;48.994;9.212;2022-11-06T15:49:23;9.00;48.60
15105;DHT22;7653;48.994;9.212;2022-11-06T15:52:00;8.90;48.70
15105;DHT22;7653;48.994;9.212;2022-11-06T15:54:44;8.80;50.40
15105;DHT22;7653;48.994;9.212;2022-11-06T15:57:14;8.70;50.30
15105;DHT22;7653;48.994;9.212;2022-11-06T15:59:41;8.70;50.70
15105;DHT22;7653;48.994;9.212;2022-11-06T16:02:18;8.60;51.90
15105;DHT22;7653;48.994;9.212;2022-11-06T16:04:45;8.50;52.80
15105;DHT22;7653;48.994;9.212;2022-11-06T16:07:12;8.40;53.30
15105;DHT22;7653;48.994;9.212;2022-11-06T16:09:39;8.50;53.70
15105;DHT22;7653;48.994;9.212;2022-11-06T16:12:10;8.40;53.70
15105;DHT22;7653;48.994;9.212;2022-11-06T16:14:41;8.40;54.80
15105;DHT22;7653;48.994;9.212;2022-11-06T16:17:24;8.40;54.80
15105;DHT22;7653;48.994;9.212;2022-11-06T16:19:52;8.50;55.10
15105;DHT22;7653;48.994;9.212;2022-11-06T16:22:26;8.40;56.10
15105;DHT22;7653;48.994;9.212;2022-11-06T16:24:54;8.40;55.80
15105;DHT22;7653;48.994;9.212;2022-11-06T16:27:22;8.40;55.80
15105;DHT22;7653;48.994;9.212;2022-11-06T16:29:54;8.50;55.80
15105;DHT22;7653;48.994;9.212;2022-11-06T16:32:23;8.50;55.70
15105;DHT22;7653;48.994;9.212;2022-11-06T16:34:50;8.60;55.00
15105;DHT22;7653;48.994;9.212;2022-11-06T16:39:51;8.50;55.60
15105;DHT22;7653;48.994;9.212;2022-11-06T16:44:58;8.60;55.00
15105;DHT22;7653;48.994;9.212;2022-11-06T16:47:24;8.40;56.30
15105;DHT22;7653;48.994;9.212;2022-11-06T16:49:54;8.30;57.80
15105;DHT22;7653;48.994;9.212;2022-11-06T16:52:33;8.40;58.30
15105;DHT22;7653;48.994;9.212;2022-11-06T16:57:44;8.40;57.60
15105;DHT22;7653;48.994;9.212;2022-11-06T17:00:30;8.40;57.30
15105;DHT22;7653;48.994;9.212;2022-11-06T17:03:02;8.30;58.80
15105;DHT22;7653;48.994;9.212;2022-11-06T17:05:35;8.30;59.40
15105;DHT22;7653;48.994;9.212;2022-11-06T17:10:47;8.50;58.00
15105;DHT22;7653;48.994;9.212;2022-11-06T17:13:20;8.40;57.80
15105;DHT22;7653;48.994;9.212;2022-11-06T17:16:01;8.40;58.20
15105;DHT22;7653;48.994;9.212;2022-11-06T17:18:35;8.40;58.60
15105;DHT22;7653;48.994;9.212;2022-11-06T17:21:03;8.40;58.90
15105;DHT22;7653;48.994;9.212;2022-11-06T17:23:31;8.40;59.40
15105;DHT22;7653;48.994;9.212;2022-11-06T17:25:59;8.40;59.50
15105;DHT22;7653;48.994;9.212;2022-11-06T17:28:26;8.40;59.50
15105;DHT22;7653;48.994;9.212;2022-11-06T17:30:51;8.50;58.80
15105;DHT22;7653;48.994;9.212;2022-11-06T17:33:20;8.50;58.50
15105;DHT22;7653;48.994;9.212;2022-11-06T17:35:47;8.40;58.00
15105;DHT22;7653;48.994;9.212;2022-11-06T17:38:14;8.40;59.30
15105;DHT22;7653;48.994;9.212;2022-11-06T17:40:44;8.60;58.70
15105;DHT22;7653;48.994;9.212;2022-11-06T17:43:10;8.60;58.60
15105;DHT22;7653;48.994;9.212;2022-11-06T17:45:37;8.50;59.50
15105;DHT22;7653;48.994;9.212;2022-11-06T17:48:03;8.60;59.70
15105;DHT22;7653;48.994;9.212;2022-11-06T17:50:29;8.60;59.60
15105;DHT22;7653;48.994;9.212;2022-11-06T17:53:15;8.60;59.20
15105;DHT22;7653;48.994;9.212;2022-11-06T17:55:40;8.70;58.90
15105;DHT22;7653;48.994;9.212;2022-11-06T17:58:06;8.50;59.40
15105;DHT22;7653;48.994;9.212;2022-11-06T18:00:34;8.50;59.60
15105;DHT22;7653;48.994;9.212;2022-11-06T18:03:00;8.50;59.60
15105;DHT22;7653;48.994;9.212;2022-11-06T18:05:25;8.60;59.70
15105;DHT22;7653;48.994;9.212;2022-11-06T18:07:51;8.60;60.00
15105;DHT22;7653;48.994;9.212;2022-11-06T18:10:17;8.60;59.70
15105;DHT22;7653;48.994;9.212;2022-11-06T18:12:42;8.80;59.60
15105;DHT22;7653;48.994;9.212;2022-11-06T18:15:08;8.80;57.50
15105;DHT22;7653;48.994;9.212;2022-11-06T18:17:34;8.70;57.50
15105;DHT22;7653;48.994;9.212;2022-11-06T18:19:59;8.70;58.10
15105;DHT22;7653;48.994;9.212;2022-11-06T18:22:25;8.80;58.60
15105;DHT22;7653;48.994;9.212;2022-11-06T18:24:50;8.70;59.70
15105;DHT22;7653;48.994;9.212;2022-11-06T18:27:16;8.70;59.40
15105;DHT22;7653;48.994;9.212;2022-11-06T18:29:42;8.60;59.60
15105;DHT22;7653;48.994;9.212;2022-11-06T18:32:07;8.60;59.70
15105;DHT22;7653;48.994;9.212;2022-11-06T18:34:33;8.60;60.10
15105;DHT22;7653;48.994;9.212;2022-11-06T18:36:58;8.50;61.50
15105;DHT22;7653;48.994;9.212;2022-11-06T18:39:24;8.40;63.40
15105;DHT22;7653;48.994;9.212;2022-11-06T18:41:50;8.40;63.90
15105;DHT22;7653;48.994;9.212;2022-11-06T18:44:16;8.50;64.40
15105;DHT22;7653;48.994;9.212;2022-11-06T18:46:42;8.50;64.40
15105;DHT22;7653;48.994;9.212;2022-11-06T18:49:12;8.40;65.30
15105;DHT22;7653;48.994;9.212;2022-11-06T18:51:38;8.40;64.70
15105;DHT22;7653;48.994;9.212;2022-11-06T18:54:07;8.50;65.20
15105;DHT22;7653;48.994;9.212;2022-11-06T18:56:36;8.50;65.50
15105;DHT22;7653;48.994;9.212;2022-11-06T18:59:05;8.50;64.40
15105;DHT22;7653;48.994;9.212;2022-11-06T19:01:31;8.60;62.40
15105;DHT22;7653;48.994;9.212;2022-11-06T19:03:58;8.50;62.80
15105;DHT22;7653;48.994;9.212;2022-11-06T19:06:24;8.50;64.10
15105;DHT22;7653;48.994;9.212;2022-11-06T19:08:50;8.50;63.80
15105;DHT22;7653;48.994;9.212;2022-11-06T19:11:16;8.40;65.20
15105;DHT22;7653;48.994;9.212;2022-11-06T19:13:42;8.60;64.90
15105;DHT22;7653;48.994;9.212;2022-11-06T19:16:10;8.60;63.60
15105;DHT22;7653;48.994;9.212;2022-11-06T19:18:38;8.70;63.40
15105;DHT22;7653;48.994;9.212;2022-11-06T19:21:05;8.60;61.80
15105;DHT22;7653;48.994;9.212;2022-11-06T19:23:33;8.60;63.00
15105;DHT22;7653;48.994;9.212;2022-11-06T19:26:04;8.70;61.90
15105;DHT22;7653;48.994;9.212;2022-11-06T19:28:30;8.70;61.60
15105;DHT22;7653;48.994;9.212;2022-11-06T19:30:57;8.70;61.90
15105;DHT22;7653;48.994;9.212;2022-11-06T19:33:24;8.70;62.50
15105;DHT22;7653;48.994;9.212;2022-11-06T19:35:57;8.70;61.70
15105;DHT22;7653;48.994;9.212;2022-11-06T19:38:23;8.70;62.10
15105;DHT22;7653;48.994;9.212;2022-11-06T19:40:54;8.80;63.80
15105;DHT22;7653;48.994;9.212;2022-11-06T19:43:20;8.70;63.30
15105;DHT22;7653;48.994;9.212;2022-11-06T19:45:46;8.80;63.20
15105;DHT22;7653;48.994;9.212;2022-11-06T19:48:11;8.80;63.20